Wheeler Sack Army Air Field
KGTB : rendu visible

Aérodrome :











RETROUVEZ-NOUS SUR...

 
LOGIN :

S'inscrire | Disclaimer

   EN    FR    IT 

 









Légende :    VFR   VFR Marginal   IFR   IFR Intensif   IFR Très Intensif
Visi : 
Plafond : 
>= 8 km
>= 3000ft
5 à 8 km
1000 à 3000 ft
1500m à 5 km
500 à 1000 ft
800 à 1500m
200 à 500 ft
< 800m
< 200 ft
Symboles :   Orages  Brouillard  Fortes neiges  Fortes précipitations  Vent > 20 kt






- Altitude de l'aérodrome : 688 ft


KGTB - Wheeler Sack Army Air Field

DERNIER METAR :
  • 140556Z AUTO 17004KT 10SM SCT100 BKN120 18/17 A2990 RMK AO2 SLP123 T01770165 10200 20170 55000

METARs EXPIRÉS :
  • 140456Z AUTO 24003KT 10SM BKN050 OVC060 17/17 A2991 RMK AO2 SLP126 T01740167 402450170
  • 140356Z AUTO 23003KT 10SM SCT130 17/16 A2990 RMK AO2 SLP123 T01700162

TAF TAF KGTB
Valide du 14 à 01h jusqu'au 15 à 07h UTC


140100Z 1401/1507 VRB06KT 9999 FEW020 BKN025 OVC040 QNH2987INS
BECMG 1411/1412 28006KT 9000 BR SCT015 BKN020 QNH2998INS
BECMG 1417/1418 03006KT 9999 NSW SCT025 BKN040 OVC060 QNH3004INS
BECMG 1422/1423 04009KT 9999 FEW025 FEW040 QNH3005INS TX24/1417Z TN16/1410Z
FIR KZBW / Amérique du Nord



MET'MAP, la Météo Aéronautique d'un coup d'oeil ! - Copyright ORBIFLY Décembre 2007 - Disclaimer

ORBIFLY MET'MAP TEAM :

Programmation & Développement : Alexandra Zaïnal
Sur une idée originale de : Baudouin d'Aumeries
Assistance à la programmation : Marc-Olivier Méhu
Soutien technique & logistique : Manuel Goepfert

Contact : metmap@orbifly.com




SOURCES & CREDITS :

   NOAA       Earth
Advisory